Time;durP1;ratioP1;P1;durP2;ratioP2;P2;SDS_P1;SDS_P2;PMS_P1;PMS_P2;Temp;Humidity;BMP_temperature;BMP_pressure;BME280_temperature;BME280_humidity;BME280_pressure;Samples;Min_cycle;Max_cycle;Signal;HPM_P1;HPM_P2
2022/07/16 00:03:09;;;;;;;7.97;3.60;;;;;;;-148.88;88.26;75732.53;5049327;28;20033;-91
2022/07/16 00:05:34;;;;;;;7.03;3.05;;;;;;;-148.88;88.45;75732.53;5045068;28;20017;-89
2022/07/16 00:07:59;;;;;;;5.35;2.97;;;;;;;-148.88;88.35;75738.63;5047191;28;20029;-91
2022/07/16 00:10:25;;;;;;;6.32;3.28;;;;;;;-148.88;88.58;75740.66;5044615;28;20029;-90
2022/07/16 00:12:51;;;;;;;4.95;3.42;;;;;;;-148.88;88.89;75744.72;5044676;28;20029;-90
2022/07/16 00:15:16;;;;;;;7.00;3.40;;;;;;;-148.88;88.70;75760.97;5043303;28;20034;-90
2022/07/16 00:17:42;;;;;;;6.25;3.33;;;;;;;-148.88;89.09;75769.09;5043460;28;20022;-91
2022/07/16 00:20:08;;;;;;;5.47;3.20;;;;;;;-148.88;89.10;75767.06;5045270;28;20419;-90
2022/07/16 00:22:33;;;;;;;4.95;2.92;;;;;;;-148.88;88.92;75771.13;5047619;28;20026;-89
2022/07/16 00:24:59;;;;;;;4.60;3.17;;;;;;;-148.88;89.35;75779.25;5047936;28;20021;-88
2022/07/16 00:27:24;;;;;;;7.20;3.10;;;;;;;-148.88;89.29;75781.28;5047944;28;20080;-90
2022/07/16 00:29:49;;;;;;;6.30;2.92;;;;;;;-148.88;89.03;75781.28;5044269;28;20025;-89
2022/07/16 00:32:15;;;;;;;4.45;2.67;;;;;;;-148.88;89.32;75783.31;5044669;28;20079;-89
2022/07/16 00:34:40;;;;;;;5.18;3.20;;;;;;;-148.88;88.97;75781.28;5041107;28;20048;-90
2022/07/16 00:37:06;;;;;;;7.50;3.03;;;;;;;-148.88;89.56;75801.59;5040469;28;20029;-90
2022/07/16 00:39:31;;;;;;;4.20;2.88;;;;;;;-148.88;89.36;75799.56;5040994;28;20080;-90
2022/07/16 00:41:57;;;;;;;8.13;2.75;;;;;;;-148.88;89.61;75815.81;5040931;28;20121;-90
2022/07/16 00:44:22;;;;;;;6.03;2.92;;;;;;;-148.88;89.42;75807.69;5042291;28;20391;-90
2022/07/16 00:46:49;;;;;;;6.93;3.00;;;;;;;-148.88;90.89;75813.78;5042627;28;20031;-90
2022/07/16 00:49:15;;;;;;;4.35;2.60;;;;;;;-148.88;90.30;75811.75;5046158;28;20084;-90
2022/07/16 00:51:44;;;;;;;6.53;2.88;;;;;;;-148.88;90.70;75813.78;5045798;28;20033;-90
2022/07/16 00:54:10;;;;;;;5.18;2.55;;;;;;;-148.88;89.51;75797.53;5043954;28;20108;-90
2022/07/16 00:56:35;;;;;;;4.05;2.45;;;;;;;-148.88;88.45;75801.59;5042989;28;20052;-89
2022/07/16 00:59:00;;;;;;;4.57;2.47;;;;;;;-148.88;87.65;75797.53;5042940;28;20072;-89
2022/07/16 01:01:26;;;;;;;7.35;2.17;;;;;;;-148.88;85.20;75797.53;5042875;28;20028;-90
2022/07/16 01:03:52;;;;;;;4.03;2.00;;;;;;;-148.88;85.00;75805.66;5040455;28;20025;-90
2022/07/16 01:06:17;;;;;;;3.28;2.00;;;;;;;-148.88;85.08;75801.59;5043827;28;20029;-91
2022/07/16 01:08:45;;;;;;;4.50;2.28;;;;;;;-148.88;84.07;75793.47;5042429;28;20028;-90
2022/07/16 01:11:16;;;;;;;2.75;1.80;;;;;;;-148.88;83.30;75801.59;5043710;28;20032;-90
2022/07/16 01:13:47;;;;;;;4.07;1.80;;;;;;;-148.88;82.67;75799.56;5045617;28;20023;-90
2022/07/16 01:16:13;;;;;;;5.28;2.08;;;;;;;-148.88;82.27;75797.53;5044116;28;20025;-89
2022/07/16 01:18:41;;;;;;;4.78;1.92;;;;;;;-148.88;81.81;75801.59;5043707;28;20032;-90
2022/07/16 01:21:07;;;;;;;3.30;1.90;;;;;;;-148.88;82.21;75795.50;5041696;28;20025;-90
2022/07/16 01:23:35;;;;;;;2.78;1.75;;;;;;;-148.88;81.76;75795.50;5040304;28;20436;-90
2022/07/16 01:26:07;;;;;;;4.60;1.80;;;;;;;-148.88;81.75;75791.44;5040950;28;20052;-90
2022/07/16 01:28:32;;;;;;;4.22;2.08;;;;;;;-148.88;81.08;75785.34;5041548;28;20021;-90
2022/07/16 01:30:58;;;;;;;5.13;1.88;;;;;;;-148.88;80.94;75783.31;5041106;28;20021;-90
2022/07/16 01:33:29;;;;;;;5.10;2.35;;;;;;;-148.88;81.11;75777.22;5040910;28;20044;-90
2022/07/16 01:36:03;;;;;;;4.90;2.30;;;;;;;-148.88;80.91;75773.16;5040475;28;20064;-90
2022/07/16 01:38:31;;;;;;;5.28;2.25;;;;;;;-148.88;80.52;75767.06;5039031;28;20445;-90
2022/07/16 01:40:57;;;;;;;4.25;1.95;;;;;;;-148.88;81.18;75769.09;5039230;28;20025;-90
2022/07/16 01:43:25;;;;;;;6.10;2.45;;;;;;;-148.88;79.92;75752.84;5041737;28;20440;-90
2022/07/16 01:45:51;;;;;;;4.07;2.00;;;;;;;-148.88;80.03;75744.72;5040123;28;20025;-90
2022/07/16 01:48:17;;;;;;;5.78;2.53;;;;;;;-148.88;79.66;75736.59;5040379;28;20048;-90
2022/07/16 01:50:46;;;;;;;3.92;2.13;;;;;;;-148.88;79.42;75736.59;5040933;28;20032;-90
2022/07/16 01:53:13;;;;;;;6.95;2.53;;;;;;;-148.88;80.46;75736.59;5039739;28;20013;-88
2022/07/16 01:55:38;;;;;;;5.72;2.40;;;;;;;-148.88;80.08;75728.47;5041496;28;20029;-90
2022/07/16 01:58:06;;;;;;;5.10;2.38;;;;;;;-148.88;80.38;75738.63;5040365;28;20029;-90
2022/07/16 02:00:34;;;;;;;5.95;2.50;;;;;;;-148.88;80.05;75734.56;5040705;28;20025;-90
2022/07/16 02:02:59;;;;;;;4.85;2.42;;;;;;;-148.88;78.90;75726.44;5040490;28;20032;-90
2022/07/16 02:05:25;;;;;;;8.57;2.78;;;;;;;-148.88;78.86;75724.41;5039567;28;20384;-90
2022/07/16 02:07:53;;;;;;;4.60;2.22;;;;;;;-148.88;78.28;75726.44;5040977;28;20033;-90
2022/07/16 02:10:22;;;;;;;5.70;2.58;;;;;;;-148.88;77.28;75708.16;5038330;28;20029;-89
2022/07/16 02:12:47;;;;;;;3.30;2.30;;;;;;;-148.88;76.79;75704.09;5037869;28;20036;-89
2022/07/16 02:18:38;;;;;;;5.32;2.60;;;;;;;-148.88;75.23;75683.78;5037475;28;20047;-90
2022/07/16 02:21:06;;;;;;;4.85;2.67;;;;;;;-148.88;75.72;75691.91;5037818;28;20040;-89
2022/07/16 02:23:32;;;;;;;4.45;2.33;;;;;;;-148.88;75.66;75687.84;5038657;28;20467;-90
2022/07/16 02:25:57;;;;;;;7.32;2.30;;;;;;;-148.88;74.48;75663.47;5037903;28;20071;-90
2022/07/16 02:28:22;;;;;;;6.40;2.60;;;;;;;-148.88;75.05;75675.66;5037258;28;20021;-88
2022/07/16 02:30:49;;;;;;;5.05;2.75;;;;;;;-148.88;74.16;75663.47;5036965;28;20021;-90
2022/07/16 02:33:18;;;;;;;5.78;2.85;;;;;;;-148.88;74.81;75667.53;5036718;28;20043;-88
2022/07/16 02:35:44;;;;;;;4.40;2.50;;;;;;;-148.88;74.34;75667.53;5037545;28;20021;-90
2022/07/16 02:38:11;;;;;;;4.85;2.60;;;;;;;-148.88;73.62;75651.28;5042378;28;20025;-89
2022/07/16 02:40:37;;;;;;;8.80;2.25;;;;;;;-148.88;73.10;75643.16;5056961;28;20041;-89
2022/07/16 02:43:04;;;;;;;4.05;2.17;;;;;;;-148.88;72.66;75647.22;5060546;22;20033;-85
2022/07/16 02:45:31;;;;;;;5.80;2.38;;;;;;;-148.88;72.52;75647.22;5032681;28;20108;-85
2022/07/16 02:47:56;;;;;;;4.60;2.30;;;;;;;-148.88;72.83;75651.28;5032582;28;20079;-84
2022/07/16 02:50:22;;;;;;;6.30;2.47;;;;;;;-148.88;72.11;75637.06;5032631;28;20425;-84
2022/07/16 02:52:47;;;;;;;3.50;2.10;;;;;;;-148.88;71.98;75639.09;5032518;28;20119;-84
2022/07/16 02:55:13;;;;;;;5.32;2.35;;;;;;;-148.88;72.23;75645.19;5033649;28;20492;-84
2022/07/16 02:57:38;;;;;;;3.88;2.17;;;;;;;-148.88;72.20;75637.06;5033295;28;20037;-85
2022/07/16 03:00:06;;;;;;;4.32;2.20;;;;;;;-148.88;72.13;75645.19;5033244;28;20075;-85
2022/07/16 03:02:31;;;;;;;5.15;2.60;;;;;;;-148.88;72.92;75647.22;5031701;28;20525;-86
2022/07/16 03:04:56;;;;;;;4.88;2.30;;;;;;;-148.88;72.40;75647.22;5031757;28;20070;-85
2022/07/16 03:07:22;;;;;;;4.53;2.40;;;;;;;-148.88;72.66;75649.25;5031975;28;20400;-86
2022/07/16 03:09:47;;;;;;;7.07;2.22;;;;;;;-148.88;72.27;75635.03;5030949;28;20025;-85
2022/07/16 03:12:12;;;;;;;4.10;2.20;;;;;;;-148.88;71.37;75620.81;5033126;28;20083;-86
2022/07/16 03:14:38;;;;;;;3.83;2.10;;;;;;;-148.88;71.06;75622.84;5033161;28;20022;-85
2022/07/16 03:17:03;;;;;;;5.55;2.20;;;;;;;-148.88;71.50;75633.00;5033130;28;20395;-86
2022/07/16 03:19:28;;;;;;;4.75;2.10;;;;;;;-148.88;70.49;75620.81;5032974;28;20029;-86
2022/07/16 03:21:54;;;;;;;3.90;2.00;;;;;;;-148.88;70.03;75618.78;5032805;28;20591;-86
2022/07/16 03:24:19;;;;;;;4.70;1.98;;;;;;;-148.88;69.72;75610.66;5033284;28;20053;-84
2022/07/16 03:26:44;;;;;;;8.20;2.30;;;;;;;-148.88;69.70;75606.59;5033397;28;20060;-84
2022/07/16 03:29:09;;;;;;;3.90;2.00;;;;;;;-148.88;69.26;75610.66;5031694;28;20032;-84
2022/07/16 03:31:35;;;;;;;4.07;2.25;;;;;;;-148.88;69.13;75606.59;5032963;28;20116;-84
2022/07/16 03:34:00;;;;;;;4.22;1.85;;;;;;;-148.88;69.38;75606.59;5031711;28;20017;-85
2022/07/16 03:36:26;;;;;;;2.92;1.73;;;;;;;-148.88;68.54;75604.56;5032864;28;20053;-85
2022/07/16 03:39:07;;;;;;;3.97;1.73;;;;;;;-148.88;68.41;75602.53;5032823;28;20087;-85
2022/07/16 03:41:34;;;;;;;3.70;2.03;;;;;;;-148.88;68.25;75602.53;5033356;28;20365;-85
2022/07/16 03:44:04;;;;;;;4.10;1.80;;;;;;;-148.88;68.46;75610.66;5033114;28;20022;-84
2022/07/16 03:46:29;;;;;;;4.38;1.77;;;;;;;-148.88;68.28;75610.66;5033045;28;20087;-84
2022/07/16 03:48:55;;;;;;;7.20;1.80;;;;;;;-148.88;68.53;75602.53;5032704;28;20029;-84
2022/07/16 03:51:24;;;;;;;5.60;1.73;;;;;;;-148.88;68.74;75610.66;5031414;28;20510;-84
2022/07/16 03:53:50;;;;;;;4.00;1.98;;;;;;;-148.88;67.74;75598.47;5031433;28;20128;-85
2022/07/16 03:56:15;;;;;;;2.92;1.88;;;;;;;-148.88;68.23;75614.72;5032449;28;20112;-87
2022/07/16 03:58:42;;;;;;;5.22;2.40;;;;;;;-148.88;68.46;75612.69;5014598;28;20026;-85
2022/07/16 04:01:07;;;;;;;3.53;1.90;;;;;;;-148.88;68.16;75606.59;5032874;28;20025;-84
2022/07/16 04:03:34;;;;;;;4.10;2.20;;;;;;;-148.88;68.62;75606.59;5032728;28;20022;-85
2022/07/16 04:06:00;;;;;;;5.05;2.15;;;;;;;-148.88;68.71;75604.56;5031155;28;20120;-85
2022/07/16 04:08:26;;;;;;;6.90;2.13;;;;;;;-148.88;68.79;75608.63;5031574;28;20163;-85
2022/07/16 04:10:51;;;;;;;5.78;2.42;;;;;;;-148.88;68.91;75616.75;5031559;28;20036;-83
2022/07/16 04:13:17;;;;;;;4.50;2.30;;;;;;;-148.88;68.66;75618.78;5034758;28;20017;-84
2022/07/16 04:15:43;;;;;;;5.60;2.08;;;;;;;-148.88;68.58;75614.72;5032746;28;20129;-84
2022/07/16 04:18:09;;;;;;;3.42;2.03;;;;;;;-148.88;68.11;75608.63;5031923;28;20029;-85
2022/07/16 04:20:34;;;;;;;6.40;2.10;;;;;;;-148.88;68.91;75622.84;5032505;28;20026;-85
2022/07/16 04:23:00;;;;;;;4.32;2.58;;;;;;;-148.88;69.37;75626.91;5035065;28;20112;-85
2022/07/16 04:25:25;;;;;;;4.32;2.22;;;;;;;-148.88;70.38;75630.97;5035808;28;20480;-87
2022/07/16 04:27:51;;;;;;;4.10;2.00;;;;;;;-148.88;71.63;75645.19;5036593;28;20025;-87
2022/07/16 04:30:17;;;;;;;4.90;1.88;;;;;;;-148.88;71.63;75639.09;5036556;28;20033;-85
2022/07/16 04:32:43;;;;;;;5.40;2.50;;;;;;;-148.88;71.67;75655.34;5035398;28;20018;-86
2022/07/16 04:35:11;;;;;;;4.63;2.72;;;;;;;-148.88;72.22;75667.53;5036380;28;20433;-85
2022/07/16 04:37:36;;;;;;;3.47;2.03;;;;;;;-148.88;72.43;75671.59;5035570;28;20017;-83
2022/07/16 04:40:04;;;;;;;4.65;2.53;;;;;;;-148.88;74.58;75691.91;5037173;28;20087;-81
2022/07/16 04:42:29;;;;;;;7.60;2.70;;;;;;;-148.88;86.13;75775.19;5037723;28;20030;-84
2022/07/16 04:44:54;;;;;;;5.10;3.00;;;;;;;-148.88;89.00;75819.88;5036320;28;20099;-83
2022/07/16 04:47:20;;;;;;;4.03;2.72;;;;;;;-148.88;91.81;75854.41;5036154;28;20096;-85
2022/07/16 04:49:45;;;;;;;6.13;3.28;;;;;;;-148.88;93.63;75844.25;5035964;28;20025;-85
2022/07/16 04:52:10;;;;;;;4.45;3.15;;;;;;;-148.88;94.17;75840.19;5035815;28;20021;-85
2022/07/16 04:54:35;;;;;;;5.15;3.30;;;;;;;-148.88;92.38;75852.38;5034616;28;20032;-85
2022/07/16 04:57:01;;;;;;;6.18;3.22;;;;;;;-148.88;94.41;75836.13;5034885;28;20146;-84
2022/07/16 04:59:26;;;;;;;5.60;3.35;;;;;;;-148.88;94.05;75838.16;5036546;28;20032;-83
2022/07/16 05:01:52;;;;;;;4.93;3.05;;;;;;;-148.88;93.94;75821.91;5037098;28;20447;-85
2022/07/16 05:04:18;;;;;;;6.65;3.35;;;;;;;-148.88;95.13;75834.09;5034859;28;20084;-85
2022/07/16 05:06:43;;;;;;;8.05;3.67;;;;;;;-148.88;96.12;75838.16;5034498;28;20021;-85
2022/07/16 05:09:09;;;;;;;4.93;3.45;;;;;;;-148.88;96.54;75830.03;5034465;28;20059;-84
2022/07/16 05:11:35;;;;;;;6.15;3.70;;;;;;;-148.88;96.83;75840.19;5034501;28;20060;-85
2022/07/16 05:14:00;;;;;;;4.93;3.80;;;;;;;-148.88;97.69;75846.28;5035859;28;20545;-84
2022/07/16 05:16:25;;;;;;;5.68;3.88;;;;;;;-148.88;98.30;75840.19;5035010;28;20036;-84
2022/07/16 05:18:51;;;;;;;9.30;4.57;;;;;;;-148.88;98.91;75842.22;5034619;28;20045;-88
2022/07/16 05:21:17;;;;;;;8.55;4.45;;;;;;;-148.88;99.36;75846.28;5034544;28;20557;-86
2022/07/16 05:23:42;;;;;;;6.57;4.05;;;;;;;-148.88;99.20;75842.22;5034134;28;20502;-86
2022/07/16 05:26:07;;;;;;;5.38;4.38;;;;;;;-148.88;100.00;75852.38;5035600;28;20075;-87
2022/07/16 05:28:33;;;;;;;7.65;4.50;;;;;;;-148.88;100.00;75854.41;5035386;28;20026;-86
2022/07/16 05:30:58;;;;;;;7.82;4.47;;;;;;;-148.88;100.00;75850.34;5035770;28;20029;-87
2022/07/16 05:33:23;;;;;;;9.73;4.88;;;;;;;-148.88;100.00;75846.28;5033321;28;20017;-86
2022/07/16 05:35:49;;;;;;;7.85;4.40;;;;;;;-148.88;100.00;75842.22;5035570;28;20025;-87
2022/07/16 05:38:14;;;;;;;5.95;4.55;;;;;;;-148.88;100.00;75848.31;5033865;28;20018;-86
2022/07/16 05:40:40;;;;;;;7.70;4.90;;;;;;;-148.88;100.00;75842.22;5034977;28;20392;-87
2022/07/16 05:43:06;;;;;;;6.97;4.82;;;;;;;-148.88;100.00;75850.34;5034625;28;20051;-86
2022/07/16 05:45:32;;;;;;;6.47;4.97;;;;;;;-148.88;100.00;75856.44;5035135;28;20036;-86
2022/07/16 05:47:57;;;;;;;10.27;5.38;;;;;;;-148.88;100.00;75844.25;5034924;28;20025;-87
2022/07/16 05:50:23;;;;;;;9.50;5.75;;;;;;;-148.88;100.00;75838.16;5035336;28;20483;-87
2022/07/16 05:52:48;;;;;;;11.63;5.40;;;;;;;-148.88;100.00;75834.09;5034835;28;20022;-87
2022/07/16 05:55:13;;;;;;;7.57;5.07;;;;;;;-148.88;100.00;75819.88;5034805;28;20104;-87
2022/07/16 05:57:41;;;;;;;7.75;5.28;;;;;;;-148.88;100.00;75817.84;5034941;28;20036;-86
2022/07/16 06:00:10;;;;;;;11.00;5.75;;;;;;;-148.88;100.00;75815.81;5034942;28;20104;-87
2022/07/16 06:02:36;;;;;;;10.15;4.80;;;;;;;-148.88;100.00;75817.84;5034495;28;20052;-87
2022/07/16 06:05:02;;;;;;;7.53;5.07;;;;;;;-148.88;100.00;75783.31;5034260;28;20360;-86
2022/07/16 06:07:28;;;;;;;7.90;4.68;;;;;;;-148.88;100.00;75783.31;5034654;28;20112;-86
2022/07/16 06:09:53;;;;;;;7.93;4.68;;;;;;;-148.88;100.00;75773.16;5034577;28;20399;-86
2022/07/16 06:12:18;;;;;;;6.18;4.15;;;;;;;-148.88;100.00;75767.06;5034571;28;20117;-85
2022/07/16 06:14:43;;;;;;;5.85;3.85;;;;;;;-148.88;99.28;75769.09;5033526;28;20108;-85
2022/07/16 06:17:09;;;;;;;5.55;3.88;;;;;;;-148.88;98.75;75775.19;5034992;28;20471;-85
2022/07/16 06:19:34;;;;;;;7.32;3.80;;;;;;;-148.88;98.82;75793.47;5033460;28;20177;-85
2022/07/16 06:22:00;;;;;;;7.38;3.50;;;;;;;-148.88;98.41;75777.22;5034103;28;20022;-85
2022/07/16 06:24:25;;;;;;;7.03;3.25;;;;;;;-148.88;97.46;75781.28;5033056;28;20021;-86
2022/07/16 06:26:51;;;;;;;6.55;3.40;;;;;;;-148.88;97.76;75781.28;5034653;28;20025;-86
2022/07/16 06:29:17;;;;;;;5.72;3.50;;;;;;;-148.88;96.62;75752.84;5034426;28;20227;-86
2022/07/16 06:31:43;;;;;;;6.40;3.35;;;;;;;-148.88;96.59;75740.66;5035812;28;20479;-86
2022/07/16 06:34:09;;;;;;;5.43;3.20;;;;;;;-148.88;96.07;75720.34;5034217;28;20022;-87
2022/07/16 06:36:34;;;;;;;4.93;2.50;;;;;;;-148.88;92.65;75704.09;5034438;28;20021;-85
2022/07/16 06:38:59;;;;;;;5.95;2.40;;;;;;;-148.88;91.39;75704.09;5033966;28;20075;-86
2022/07/16 06:41:25;;;;;;;3.72;1.95;;;;;;;-148.88;91.19;75695.97;5033284;28;20044;-87
2022/07/16 06:43:50;;;;;;;3.30;1.70;;;;;;;-148.88;90.56;75677.69;5033040;28;20024;-86
2022/07/16 06:46:16;;;;;;;2.85;1.65;;;;;;;-148.88;90.43;75663.47;5034481;28;20088;-90
2022/07/16 06:48:41;;;;;;;4.20;1.70;;;;;;;-148.88;88.75;75675.66;5033693;28;20029;-87
2022/07/16 06:51:06;;;;;;;2.30;1.40;;;;;;;-148.88;87.62;75671.59;5034542;28;20029;-87
2022/07/16 06:53:36;;;;;;;2.95;1.67;;;;;;;-148.88;86.64;75655.34;5033166;28;20020;-88
2022/07/16 06:56:02;;;;;;;4.57;1.70;;;;;;;-148.88;84.02;75659.41;5033164;28;20021;-87
2022/07/16 06:58:27;;;;;;;2.53;1.30;;;;;;;-148.88;84.76;75687.84;5032540;28;20087;-87
2022/07/16 07:00:52;;;;;;;5.93;1.40;;;;;;;-148.88;85.44;75700.03;5032165;28;20025;-85
2022/07/16 07:03:18;;;;;;;3.92;1.23;;;;;;;-148.88;85.79;75685.81;5032250;28;20434;-87
2022/07/16 07:05:43;;;;;;;4.03;1.60;;;;;;;-148.88;84.92;75700.03;5034107;28;20033;-86
2022/07/16 07:08:09;;;;;;;5.60;1.30;;;;;;;-148.88;84.45;75691.91;5032377;28;20021;-85
2022/07/16 07:10:34;;;;;;;4.13;1.13;;;;;;;-148.88;84.83;75685.81;5032137;28;20100;-85
2022/07/16 07:13:00;;;;;;;3.90;1.35;;;;;;;-148.88;84.15;75681.75;5033230;28;20028;-85
2022/07/16 07:15:25;;;;;;;3.30;1.23;;;;;;;-148.88;81.19;75683.78;5033480;28;20105;-84
2022/07/16 07:17:51;;;;;;;3.63;1.40;;;;;;;-148.88;80.78;75702.06;5032914;28;20181;-85
2022/07/16 07:20:16;;;;;;;3.55;1.27;;;;;;;-148.88;80.79;75706.13;5033372;28;20431;-86
2022/07/16 07:22:41;;;;;;;3.67;1.00;;;;;;;-148.88;78.65;75700.03;5033148;28;20025;-85
2022/07/16 07:25:09;;;;;;;2.78;1.20;;;;;;;-148.88;78.62;75687.84;5033290;28;20065;-86
2022/07/16 07:27:35;;;;;;;4.07;1.30;;;;;;;-148.88;77.75;75677.69;5032715;28;20099;-87
2022/07/16 07:30:00;;;;;;;3.25;1.10;;;;;;;-148.88;77.85;75673.63;5033492;28;20029;-85
2022/07/16 07:32:25;;;;;;;3.95;1.25;;;;;;;-148.88;76.59;75671.59;5033783;28;20468;-84
2022/07/16 07:34:51;;;;;;;3.17;1.00;;;;;;;-148.88;76.02;75657.38;5033597;28;20029;-83
2022/07/16 07:37:16;;;;;;;3.00;1.10;;;;;;;-148.88;75.04;75641.13;5033363;28;20025;-84
2022/07/16 07:39:41;;;;;;;2.42;1.15;;;;;;;-148.88;74.75;75647.22;5033419;28;20037;-84
2022/07/16 07:42:07;;;;;;;4.35;1.50;;;;;;;-148.88;75.97;75626.91;5033050;28;20435;-83
2022/07/16 07:44:32;;;;;;;3.60;1.27;;;;;;;-148.88;75.83;75624.88;5032174;28;20021;-83
2022/07/16 07:46:57;;;;;;;5.63;1.15;;;;;;;-148.88;73.85;75626.91;5033585;28;20436;-84
2022/07/16 07:49:23;;;;;;;5.97;1.13;;;;;;;-148.88;71.63;75641.13;5033670;28;20041;-81
2022/07/16 07:51:48;;;;;;;3.33;1.27;;;;;;;-148.88;72.95;75657.38;5033075;28;20021;-82
2022/07/16 07:54:14;;;;;;;3.42;1.35;;;;;;;-148.88;74.91;75657.38;5034080;28;20029;-81
2022/07/16 07:56:39;;;;;;;2.33;1.33;;;;;;;-148.88;76.49;75657.38;5033842;28;20412;-82
2022/07/16 07:59:04;;;;;;;3.42;1.30;;;;;;;-148.88;76.87;75639.09;5033769;28;20021;-81
2022/07/16 08:01:29;;;;;;;3.08;1.38;;;;;;;-148.88;76.51;75633.00;5034444;28;20120;-81
2022/07/16 08:03:55;;;;;;;3.92;1.40;;;;;;;-148.88;77.35;75641.13;5033744;28;20026;-81
2022/07/16 08:06:20;;;;;;;5.20;1.20;;;;;;;-148.88;77.01;75610.66;5035031;28;20104;-81
2022/07/16 08:08:45;;;;;;;3.08;1.30;;;;;;;-148.88;77.40;75584.25;5034058;28;20557;-81
2022/07/16 08:11:11;;;;;;;6.50;1.55;;;;;;;-148.88;76.82;75533.50;5034235;28;20095;-81
2022/07/16 08:13:36;;;;;;;3.90;1.20;;;;;;;-148.88;72.85;75525.38;5032195;28;20108;-81
2022/07/16 08:16:02;;;;;;;5.68;1.63;;;;;;;-148.88;72.79;75545.69;5033782;28;20026;-81
2022/07/16 08:18:27;;;;;;;7.25;1.40;;;;;;;-148.88;70.38;75541.63;5033560;28;20040;-81
2022/07/16 08:20:53;;;;;;;4.22;1.35;;;;;;;-148.88;70.66;75537.56;5032247;28;20476;-81
2022/07/16 08:25:44;;;;;;;3.45;1.27;;;;;;;-148.88;70.03;75529.44;5032354;28;20490;-81
2022/07/16 08:26:03;;;;;;;5.15;1.23;;;;;;;-148.88;66.42;75539.59;5032766;28;20511;-82
2022/07/16 08:28:28;;;;;;;2.67;1.10;;;;;;;-148.88;66.44;75519.28;5033912;28;20028;-81
2022/07/16 08:30:54;;;;;;;5.20;1.15;;;;;;;-148.88;62.98;75503.03;5032261;28;20089;-81
2022/07/16 08:33:19;;;;;;;4.20;1.00;;;;;;;-148.88;63.68;75452.25;5032284;28;20021;-81
2022/07/16 08:35:45;;;;;;;3.10;1.33;;;;;;;-148.88;63.00;75448.19;5032333;28;20032;-81
2022/07/16 08:38:10;;;;;;;2.63;1.08;;;;;;;-148.88;63.57;75517.25;5033115;28;20018;-81
2022/07/16 08:40:40;;;;;;;4.85;1.50;;;;;;;-148.88;65.24;75476.63;5032647;28;20035;-81
2022/07/16 08:43:08;;;;;;;4.28;1.10;;;;;;;-148.88;62.70;75442.09;5077624;22;20050;-84
2022/07/16 08:45:36;;;;;;;3.40;1.15;;;;;;;-148.88;61.73;75484.75;5033205;28;20030;-84
2022/07/16 08:48:02;;;;;;;7.00;1.48;;;;;;;-148.88;64.08;75545.69;5032968;28;20049;-85
2022/07/16 08:50:28;;;;;;;2.53;1.10;;;;;;;-148.88;65.03;75563.97;5033167;28;20479;-85
2022/07/16 08:52:57;;;;;;;5.35;1.40;;;;;;;-148.88;66.93;75622.84;5033632;28;20036;-87
2022/07/16 08:55:26;;;;;;;3.75;1.00;;;;;;;-148.88;67.21;75671.59;5032149;28;20025;-85
2022/07/16 08:57:53;;;;;;;2.97;0.80;;;;;;;-148.88;67.59;75655.34;5032068;28;20487;-84
2022/07/16 09:00:20;;;;;;;4.22;1.10;;;;;;;-148.88;68.07;75590.34;5032048;28;20121;-84
2022/07/16 09:02:46;;;;;;;5.78;1.20;;;;;;;-148.88;66.01;75541.63;5032136;28;20017;-84
2022/07/16 09:05:15;;;;;;;3.20;1.10;;;;;;;-148.88;65.21;75557.88;5032590;28;20033;-84
2022/07/16 09:07:40;;;;;;;3.85;1.00;;;;;;;-148.88;64.05;75549.75;5033265;28;20112;-85
2022/07/16 09:10:08;;;;;;;2.63;1.00;;;;;;;-148.88;61.53;75566.00;5036140;28;20056;-85
2022/07/16 09:12:39;;;;;;;2.15;0.80;;;;;;;-148.88;62.25;75535.53;5037600;28;20028;-84
2022/07/16 09:15:31;;;;;;;6.20;1.30;;;;;;;-148.88;62.98;75488.81;5037033;28;20029;-84
2022/07/16 09:18:18;;;;;;;3.92;1.00;;;;;;;-148.88;63.68;75470.53;5037143;28;20487;-84
2022/07/16 09:21:00;;;;;;;4.40;0.90;;;;;;;-148.88;58.99;75452.25;5035974;28;20064;-85
2022/07/16 09:23:34;;;;;;;3.28;0.70;;;;;;;-148.88;54.49;75474.59;5036958;28;20029;-87
2022/07/16 09:26:05;;;;;;;2.58;0.80;;;;;;;-148.88;54.34;75442.09;5037579;28;20120;-85
2022/07/16 09:28:47;;;;;;;3.85;1.00;;;;;;;-148.88;55.82;75492.88;5036459;28;20021;-85
2022/07/16 09:31:30;;;;;;;5.20;1.10;;;;;;;-148.88;59.68;75586.31;5035314;28;20124;-83
2022/07/16 09:34:13;;;;;;;4.50;1.00;;;;;;;-148.88;58.24;75496.94;5018162;28;20060;-85
2022/07/16 09:36:57;;;;;;;6.90;1.35;;;;;;;-148.88;58.00;75440.06;5035297;28;20025;-84
2022/07/16 09:39:25;;;;;;;6.25;1.25;;;;;;;-148.88;59.16;75452.25;5036479;28;20094;-85
2022/07/16 09:41:51;;;;;;;9.65;1.55;;;;;;;-148.88;58.11;75474.59;5036303;28;20075;-86
2022/07/16 09:44:27;;;;;;;5.43;1.10;;;;;;;-148.88;56.46;75456.31;5035860;28;20021;-84
2022/07/16 09:47:03;;;;;;;11.15;2.20;;;;;;;-148.88;56.65;75460.38;5036328;28;20025;-85
2022/07/16 09:49:36;;;;;;;5.53;1.58;;;;;;;-148.88;55.27;75383.19;5037031;28;20029;-85
2022/07/16 09:52:02;;;;;;;11.25;1.80;;;;;;;-148.88;56.47;75480.69;5034884;28;20025;-85
2022/07/16 09:54:33;;;;;;;9.63;1.33;;;;;;;-148.88;58.11;75541.63;5034538;28;20040;-85
2022/07/16 09:57:05;;;;;;;6.03;1.13;;;;;;;-148.88;58.31;75509.13;5036026;28;20514;-83
2022/07/16 09:59:31;;;;;;;2.88;1.00;;;;;;;-148.88;57.86;75411.63;5036268;28;20079;-85
2022/07/16 10:01:57;;;;;;;6.47;1.15;;;;;;;-148.88;59.67;75509.13;5034702;28;20029;-86
2022/07/16 10:04:32;;;;;;;5.70;1.35;;;;;;;-148.88;59.29;75476.63;5035450;28;20039;-84
2022/07/16 10:07:00;;;;;;;4.95;1.23;;;;;;;-148.88;57.27;75436.00;5035334;28;20032;-83
2022/07/16 10:09:29;;;;;;;5.82;1.30;;;;;;;-148.88;57.55;75436.00;5035220;28;20031;-85
2022/07/16 10:11:59;;;;;;;5.05;1.17;;;;;;;-148.88;57.77;75458.34;5034682;28;20391;-86
2022/07/16 10:14:30;;;;;;;5.75;1.20;;;;;;;-148.88;57.80;75494.91;5035223;28;20057;-85
2022/07/16 10:17:00;;;;;;;3.63;1.15;;;;;;;-148.88;57.00;75503.03;5036213;28;20029;-86
2022/07/16 10:19:38;;;;;;;5.50;1.23;;;;;;;-148.88;56.64;75501.00;5034356;28;20026;-87
2022/07/16 10:22:13;;;;;;;4.15;1.20;;;;;;;-148.88;55.89;75464.44;5034568;28;20032;-85
2022/07/16 10:24:47;;;;;;;4.20;1.20;;;;;;;-148.88;53.32;75423.81;5033897;28;20099;-87
2022/07/16 10:27:47;;;;;;;5.68;1.10;;;;;;;-148.88;51.81;75429.91;5035592;28;20029;-86
2022/07/16 10:30:18;;;;;;;8.32;1.17;;;;;;;-148.88;52.64;75362.88;5035303;28;20029;-86
2022/07/16 10:32:59;;;;;;;6.07;1.10;;;;;;;-148.88;51.60;75448.19;5034661;28;20557;-87
2022/07/16 10:35:44;;;;;;;4.88;0.90;;;;;;;-148.88;49.50;75456.31;5036055;28;20032;-88
2022/07/16 10:38:12;;;;;;;5.30;1.20;;;;;;;-148.88;50.61;75403.50;5033823;28;20099;-87
2022/07/16 10:40:41;;;;;;;4.00;0.90;;;;;;;-148.88;50.00;75415.69;5034223;28;20036;-89
2022/07/16 10:43:20;;;;;;;4.63;1.48;;;;;;;-148.88;48.85;75373.03;5035113;28;20026;-89
2022/07/16 10:45:56;;;;;;;3.55;0.77;;;;;;;-148.88;50.65;75511.16;5038804;28;20045;-89
2022/07/16 10:48:46;;;;;;;8.00;1.02;;;;;;;-148.88;49.47;75537.56;5036451;28;20026;-88
2022/07/16 10:51:15;;;;;;;2.80;0.85;;;;;;;-148.88;51.43;75537.56;5034697;28;20033;-87
2022/07/16 10:54:02;;;;;;;5.63;1.00;;;;;;;-148.88;49.53;75492.88;5034847;28;20021;-87
2022/07/16 10:56:56;;;;;;;2.92;0.98;;;;;;;-148.88;48.86;75442.09;5036337;28;20040;-87
2022/07/16 10:59:25;;;;;;;;;;;;;;;-148.88;50.41;75385.22;5035861;28;20038;-86
2022/07/16 11:01:53;;;;;;;4.45;1.00;;;;;;;-148.88;46.22;75533.50;5033929;28;19909;-85
2022/07/16 11:04:38;;;;;;;4.00;0.77;;;;;;;-148.88;46.76;75563.97;5033763;28;20383;-85
2022/07/16 11:07:11;;;;;;;4.07;0.75;;;;;;;-148.88;46.37;75448.19;5034571;28;20040;-85
2022/07/16 11:09:39;;;;;;;1.92;0.80;;;;;;;-148.88;44.67;75393.34;5034379;28;20044;-89
2022/07/16 11:12:17;;;;;;;3.05;0.73;;;;;;;-148.88;43.97;75391.31;5033512;28;20022;-84
2022/07/16 11:14:46;;;;;;;4.05;1.00;;;;;;;-148.88;43.73;75366.94;5034035;28;20037;-86
2022/07/16 11:17:12;;;;;;;2.92;0.65;;;;;;;-148.88;45.03;75440.06;5033348;28;20506;-85
2022/07/16 11:20:16;;;;;;;3.45;0.70;;;;;;;-148.88;44.20;75381.16;5035020;28;20490;-86
2022/07/16 11:22:41;;;;;;;3.40;0.80;;;;;;;-148.88;44.33;75379.13;5034641;28;20029;-85
2022/07/16 11:25:07;;;;;;;5.53;0.80;;;;;;;-148.88;44.61;75397.41;5033229;28;20083;-86